Time;durP1;ratioP1;P1;durP2;ratioP2;P2;SDS_P1;SDS_P2;PMS_P1;PMS_P2;Temp;Humidity;BMP_temperature;BMP_pressure;BME280_temperature;BME280_humidity;BME280_pressure;Samples;Min_cycle;Max_cycle;Signal;HPM_P1;HPM_P2
2021/05/17 00:00:10;;;;;;;6.29;3.48;;;;;;;;;;325593;163;857507;-58
2021/05/17 00:01:12;;;;;;;8.77;3.89;;;;;;;;;;331218;162;857508;-57
2021/05/17 00:02:14;;;;;;;10.44;4.21;;;;;;;;;;323033;165;859757;-57
2021/05/17 00:03:16;;;;;;;8.51;3.36;;;;;;;;;;331493;161;865016;-58
2021/05/17 00:04:17;;;;;;;12.40;3.64;;;;;;;;;;331081;162;858010;-57
2021/05/17 00:05:20;;;;;;;7.01;3.80;;;;;;;;;;331122;162;857313;-57
2021/05/17 00:06:22;;;;;;;10.53;3.64;;;;;;;;;;330761;161;865788;-58
2021/05/17 00:07:23;;;;;;;10.89;3.90;;;;;;;;;;330798;160;859725;-58
2021/05/17 00:08:25;;;;;;;7.90;3.56;;;;;;;;;;329962;161;866841;-57
2021/05/17 00:09:26;;;;;;;9.26;3.89;;;;;;;;;;331562;159;859661;-58
2021/05/17 00:10:28;;;;;;;8.31;4.01;;;;;;;;;;333912;159;859089;-58
2021/05/17 00:11:30;;;;;;;9.41;3.93;;;;;;;;;;331262;160;858859;-58
2021/05/17 00:12:32;;;;;;;7.56;3.61;;;;;;;;;;330631;162;857866;-58
2021/05/17 00:13:34;;;;;;;8.77;3.61;;;;;;;;;;331438;161;865158;-58
2021/05/17 00:14:35;;;;;;;6.64;3.66;;;;;;;;;;330552;162;858685;-57
2021/05/17 00:15:41;;;;;;;7.94;3.52;;;;;;;;;;331549;161;857420;-57
2021/05/17 00:16:42;;;;;;;9.59;3.95;;;;;;;;;;329872;160;864907;-58
2021/05/17 00:17:43;;;;;;;8.60;3.84;;;;;;;;;;324621;164;866676;-57
2021/05/17 00:18:45;;;;;;;17.13;4.40;;;;;;;;;;324128;166;865287;-57
2021/05/17 00:19:46;;;;;;;11.44;3.90;;;;;;;;;;323560;164;857403;-57
2021/05/17 00:20:49;;;;;;;8.28;3.77;;;;;;;;;;324917;161;857950;-57
2021/05/17 00:21:50;;;;;;;8.54;3.59;;;;;;;;;;328851;161;859035;-57
2021/05/17 00:22:52;;;;;;;13.49;4.35;;;;;;;;;;329906;161;859467;-57
2021/05/17 00:23:54;;;;;;;9.03;4.45;;;;;;;;;;329764;162;858793;-57
2021/05/17 00:24:56;;;;;;;8.90;3.57;;;;;;;;;;328621;161;857876;-57
2021/05/17 00:25:58;;;;;;;8.89;3.75;;;;;;;;;;332485;162;857813;-57
2021/05/17 00:26:59;;;;;;;9.77;4.20;;;;;;;;;;331594;159;857338;-58
2021/05/17 00:28:01;;;;;;;8.58;3.88;;;;;;;;;;329557;162;865119;-57
2021/05/17 00:29:03;;;;;;;8.59;3.73;;;;;;;;;;332490;159;867006;-57
2021/05/17 00:30:05;;;;;;;12.03;3.73;;;;;;;;;;329113;160;859214;-57
2021/05/17 00:31:07;;;;;;;6.74;3.81;;;;;;;;;;330300;161;858060;-57
2021/05/17 00:32:09;;;;;;;6.87;3.93;;;;;;;;;;332481;161;860543;-57
2021/05/17 00:33:11;;;;;;;7.85;3.67;;;;;;;;;;329352;162;857446;-57
2021/05/17 00:34:12;;;;;;;7.03;3.71;;;;;;;;;;324159;165;865020;-57
2021/05/17 00:35:14;;;;;;;9.89;4.29;;;;;;;;;;330780;162;859312;-57
2021/05/17 00:36:17;;;;;;;14.63;4.09;;;;;;;;;;330969;160;856604;-58
2021/05/17 00:37:18;;;;;;;8.89;3.60;;;;;;;;;;326879;159;865011;-57
2021/05/17 00:38:20;;;;;;;7.00;3.36;;;;;;;;;;328520;160;866668;-58
2021/05/17 00:39:22;;;;;;;8.75;3.46;;;;;;;;;;329530;161;857229;-59
2021/05/17 00:40:25;;;;;;;7.11;3.45;;;;;;;;;;329645;162;857365;-57
2021/05/17 00:41:28;;;;;;;6.45;3.40;;;;;;;;;;332624;159;857504;-57
2021/05/17 00:42:30;;;;;;;7.87;3.95;;;;;;;;;;330772;162;864834;-58
2021/05/17 00:43:35;;;;;;;6.83;3.78;;;;;;;;;;331870;159;864951;-57
2021/05/17 00:44:37;;;;;;;10.26;3.83;;;;;;;;;;328924;159;857588;-57
2021/05/17 00:45:38;;;;;;;10.21;4.36;;;;;;;;;;325755;162;857364;-57
2021/05/17 00:46:41;;;;;;;8.27;3.91;;;;;;;;;;322550;165;857813;-57
2021/05/17 00:47:43;;;;;;;7.57;3.82;;;;;;;;;;328363;162;857568;-57
2021/05/17 00:48:45;;;;;;;9.53;4.08;;;;;;;;;;325934;164;859251;-57
2021/05/17 00:49:47;;;;;;;11.79;3.89;;;;;;;;;;328254;162;858488;-57
2021/05/17 00:50:50;;;;;;;7.02;3.63;;;;;;;;;;323582;166;857436;-57
2021/05/17 00:51:51;;;;;;;6.99;3.32;;;;;;;;;;321676;164;867133;-57
2021/05/17 00:52:53;;;;;;;8.25;4.17;;;;;;;;;;328786;162;864930;-57
2021/05/17 00:53:55;;;;;;;9.50;3.90;;;;;;;;;;325621;162;857457;-57
2021/05/17 00:54:57;;;;;;;9.96;4.20;;;;;;;;;;326802;164;864985;-57
2021/05/17 00:55:59;;;;;;;9.08;4.19;;;;;;;;;;324305;164;864781;-58
2021/05/17 00:57:00;;;;;;;7.50;3.71;;;;;;;;;;328343;161;857374;-58
2021/05/17 00:58:02;;;;;;;7.92;4.31;;;;;;;;;;328119;162;857466;-58
2021/05/17 00:59:04;;;;;;;9.89;4.35;;;;;;;;;;331350;162;857363;-58
2021/05/17 01:00:06;;;;;;;8.03;4.54;;;;;;;;;;330420;161;864951;-58
2021/05/17 01:01:08;;;;;;;7.83;4.17;;;;;;;;;;334998;159;859244;-58
2021/05/17 01:02:10;;;;;;;8.36;3.78;;;;;;;;;;337408;159;857504;-57
2021/05/17 01:03:11;;;;;;;11.85;4.45;;;;;;;;;;332373;159;857522;-58
2021/05/17 01:04:13;;;;;;;9.68;4.24;;;;;;;;;;331511;162;857693;-57
2021/05/17 01:05:14;;;;;;;8.26;4.45;;;;;;;;;;333497;159;857462;-58
2021/05/17 01:06:19;;;;;;;9.81;4.31;;;;;;;;;;330397;161;859276;-58
2021/05/17 01:07:25;;;;;;;8.84;4.54;;;;;;;;;;331353;162;860587;-57
2021/05/17 01:08:25;;;;;;;9.06;3.99;;;;;;;;;;327055;161;858750;-58
2021/05/17 01:09:27;;;;;;;8.23;4.46;;;;;;;;;;325004;163;860343;-58
2021/05/17 01:10:30;;;;;;;15.08;4.47;;;;;;;;;;330135;162;857285;-58
2021/05/17 01:11:33;;;;;;;10.04;3.94;;;;;;;;;;330578;161;865892;-58
2021/05/17 01:12:35;;;;;;;10.43;3.89;;;;;;;;;;326178;165;865677;-58
2021/05/17 01:13:36;;;;;;;6.38;3.41;;;;;;;;;;330978;162;865769;-58
2021/05/17 01:14:38;;;;;;;8.08;3.60;;;;;;;;;;330818;161;866702;-58
2021/05/17 01:15:39;;;;;;;11.56;3.96;;;;;;;;;;326148;162;859073;-57
2021/05/17 01:16:42;;;;;;;7.31;3.84;;;;;;;;;;330888;162;859377;-58
2021/05/17 01:17:43;;;;;;;7.92;4.23;;;;;;;;;;330880;159;857468;-57
2021/05/17 01:18:45;;;;;;;6.27;3.98;;;;;;;;;;330823;162;864939;-58
2021/05/17 01:19:52;;;;;;;7.82;4.43;;;;;;;;;;330528;161;864904;-58
2021/05/17 01:20:54;;;;;;;10.61;3.81;;;;;;;;;;331557;161;859111;-58
2021/05/17 01:21:56;;;;;;;7.70;3.63;;;;;;;;;;331355;161;858193;-57
2021/05/17 01:24:25;;;;;;;11.37;4.26;;;;;;;;;;329575;163;857208;-57
2021/05/17 01:25:28;;;;;;;6.35;4.19;;;;;;;;;;329759;160;857479;-57
2021/05/17 01:26:30;;;;;;;10.30;4.35;;;;;;;;;;329696;163;857808;-57
2021/05/17 01:27:32;;;;;;;6.92;3.97;;;;;;;;;;329585;163;865129;-58
2021/05/17 01:28:33;;;;;;;7.84;4.34;;;;;;;;;;328416;162;857464;-58
2021/05/17 01:29:35;;;;;;;8.07;4.14;;;;;;;;;;326373;163;857448;-57
2021/05/17 01:30:37;;;;;;;6.37;3.83;;;;;;;;;;324551;164;859213;-58
2021/05/17 01:31:40;;;;;;;5.29;4.24;;;;;;;;;;326067;163;857235;-58
2021/05/17 01:32:42;;;;;;;9.57;4.25;;;;;;;;;;333162;160;864996;-57
2021/05/17 01:33:44;;;;;;;8.42;4.54;;;;;;;;;;324868;164;864931;-58
2021/05/17 01:34:46;;;;;;;12.06;4.83;;;;;;;;;;327845;164;857405;-57
2021/05/17 01:35:48;;;;;;;9.23;4.31;;;;;;;;;;331087;159;858135;-57
2021/05/17 01:36:51;;;;;;;10.84;4.19;;;;;;;;;;327695;162;857635;-58
2021/05/17 01:37:52;;;;;;;8.78;4.66;;;;;;;;;;331573;161;858885;-57
2021/05/17 01:38:55;;;;;;;10.04;4.26;;;;;;;;;;331315;161;865001;-57
2021/05/17 01:39:56;;;;;;;12.77;5.26;;;;;;;;;;331639;162;865780;-57
2021/05/17 01:40:58;;;;;;;10.28;5.25;;;;;;;;;;323157;164;859179;-57
2021/05/17 01:42:00;;;;;;;9.60;4.79;;;;;;;;;;325795;164;865442;-57
2021/05/17 01:43:03;;;;;;;6.97;4.82;;;;;;;;;;331641;162;866927;-57
2021/05/17 01:44:05;;;;;;;9.64;4.59;;;;;;;;;;331770;161;857445;-57
2021/05/17 01:45:07;;;;;;;8.64;4.36;;;;;;;;;;325309;164;865018;-58
2021/05/17 01:46:10;;;;;;;6.89;4.15;;;;;;;;;;333250;161;857938;-57
2021/05/17 01:47:11;;;;;;;8.33;4.70;;;;;;;;;;330275;161;859774;-56
2021/05/17 01:48:13;;;;;;;6.01;4.04;;;;;;;;;;331520;159;857589;-57
2021/05/17 01:49:14;;;;;;;8.57;4.59;;;;;;;;;;331514;161;865638;-56
2021/05/17 01:50:17;;;;;;;7.71;4.47;;;;;;;;;;328550;162;857437;-57
2021/05/17 01:51:19;;;;;;;11.61;4.75;;;;;;;;;;329545;162;857231;-57
2021/05/17 01:52:21;;;;;;;6.33;4.43;;;;;;;;;;331143;159;866282;-57
2021/05/17 01:53:22;;;;;;;10.30;4.71;;;;;;;;;;330781;161;858198;-57
2021/05/17 01:54:26;;;;;;;11.01;4.42;;;;;;;;;;331592;162;857407;-56
2021/05/17 01:55:27;;;;;;;11.09;4.16;;;;;;;;;;329674;161;858402;-57
2021/05/17 01:56:31;;;;;;;8.98;4.45;;;;;;;;;;330602;160;857235;-58
2021/05/17 01:57:32;;;;;;;9.59;4.45;;;;;;;;;;331614;161;857413;-58
2021/05/17 01:58:36;;;;;;;9.33;4.52;;;;;;;;;;322974;164;858281;-58
2021/05/17 01:59:38;;;;;;;12.51;4.47;;;;;;;;;;323594;163;864952;-58
2021/05/17 02:00:44;;;;;;;8.37;4.58;;;;;;;;;;324029;164;859836;-58
2021/05/17 02:01:43;;;;;;;8.19;4.46;;;;;;;;;;323083;166;859581;-58
2021/05/17 02:02:45;;;;;;;7.54;4.71;;;;;;;;;;331360;160;866000;-58
2021/05/17 02:03:47;;;;;;;8.06;4.19;;;;;;;;;;329109;160;864870;-58
2021/05/17 02:04:48;;;;;;;7.15;4.90;;;;;;;;;;329512;163;857485;-58
2021/05/17 02:05:50;;;;;;;6.56;4.16;;;;;;;;;;330023;162;857426;-58
2021/05/17 02:06:52;;;;;;;7.99;4.45;;;;;;;;;;325281;163;866664;-58
2021/05/17 02:07:54;;;;;;;13.54;4.53;;;;;;;;;;328966;162;858669;-57
2021/05/17 02:08:55;;;;;;;10.15;4.36;;;;;;;;;;328728;160;858696;-59
2021/05/17 02:09:57;;;;;;;6.47;4.13;;;;;;;;;;329431;162;857289;-59
2021/05/17 02:10:59;;;;;;;6.77;4.19;;;;;;;;;;326795;163;857518;-58
2021/05/17 02:12:01;;;;;;;8.42;4.85;;;;;;;;;;325601;163;865384;-58
2021/05/17 02:13:03;;;;;;;5.92;4.27;;;;;;;;;;326284;165;858286;-58
2021/05/17 02:14:05;;;;;;;7.88;4.51;;;;;;;;;;324083;162;859180;-58
2021/05/17 02:15:07;;;;;;;11.18;4.81;;;;;;;;;;326199;164;857871;-58
2021/05/17 02:16:12;;;;;;;10.98;4.39;;;;;;;;;;327835;161;857462;-58
2021/05/17 02:17:13;;;;;;;6.94;4.51;;;;;;;;;;324496;164;858615;-56
2021/05/17 02:18:17;;;;;;;10.19;4.79;;;;;;;;;;325796;164;858316;-58
2021/05/17 02:19:24;;;;;;;8.78;4.52;;;;;;;;;;324797;162;866912;-58
2021/05/17 02:20:29;;;;;;;7.83;4.53;;;;;;;;;;323975;164;858741;-58
2021/05/17 02:21:30;;;;;;;8.78;4.50;;;;;;;;;;327388;163;857378;-58
2021/05/17 02:22:32;;;;;;;9.17;4.53;;;;;;;;;;319281;166;857867;-57
2021/05/17 02:23:34;;;;;;;7.49;4.37;;;;;;;;;;327495;164;857902;-57
2021/05/17 02:24:36;;;;;;;12.26;4.64;;;;;;;;;;319189;164;857399;-57
2021/05/17 02:25:41;;;;;;;11.81;4.79;;;;;;;;;;321267;167;865184;-57
2021/05/17 02:26:43;;;;;;;8.64;4.42;;;;;;;;;;318754;168;865130;-58
2021/05/17 02:27:45;;;;;;;7.03;4.54;;;;;;;;;;323494;164;858179;-57
2021/05/17 02:28:46;;;;;;;8.16;4.69;;;;;;;;;;317359;169;866118;-57
2021/05/17 02:29:48;;;;;;;10.85;4.64;;;;;;;;;;323162;161;864785;-56
2021/05/17 02:30:50;;;;;;;7.64;4.70;;;;;;;;;;325178;162;857260;-57
2021/05/17 02:31:52;;;;;;;6.69;4.41;;;;;;;;;;327892;164;865948;-57
2021/05/17 02:32:53;;;;;;;7.98;4.17;;;;;;;;;;326004;161;865745;-57
2021/05/17 02:33:55;;;;;;;9.52;5.19;;;;;;;;;;327888;161;857330;-57
2021/05/17 02:34:57;;;;;;;5.63;4.77;;;;;;;;;;327926;164;858143;-57
2021/05/17 02:35:59;;;;;;;9.87;4.99;;;;;;;;;;327839;162;864921;-58
2021/05/17 02:37:01;;;;;;;12.33;5.15;;;;;;;;;;323222;164;858222;-57
2021/05/17 02:38:03;;;;;;;11.07;5.25;;;;;;;;;;325157;162;857340;-57
2021/05/17 02:39:05;;;;;;;9.17;4.97;;;;;;;;;;324757;163;857407;-57
2021/05/17 02:40:08;;;;;;;11.09;5.04;;;;;;;;;;318639;167;864969;-58
2021/05/17 02:41:10;;;;;;;10.47;4.64;;;;;;;;;;318670;165;858738;-57
2021/05/17 02:42:16;;;;;;;10.63;4.65;;;;;;;;;;320929;166;860128;-57
2021/05/17 02:43:20;;;;;;;8.98;5.02;;;;;;;;;;327390;161;857294;-57
2021/05/17 02:44:22;;;;;;;6.93;4.86;;;;;;;;;;324658;163;857316;-57
2021/05/17 02:45:24;;;;;;;10.67;5.04;;;;;;;;;;322677;166;857166;-57
2021/05/17 02:46:27;;;;;;;7.94;5.15;;;;;;;;;;326144;162;860748;-59
2021/05/17 02:47:34;;;;;;;9.22;5.14;;;;;;;;;;321838;164;858768;-58
2021/05/17 02:48:40;;;;;;;7.87;4.89;;;;;;;;;;326919;164;858257;-57
2021/05/17 02:49:41;;;;;;;9.06;4.78;;;;;;;;;;327506;162;858032;-57
2021/05/17 02:50:44;;;;;;;10.68;4.85;;;;;;;;;;320744;168;859814;-56
2021/05/17 02:51:47;;;;;;;9.71;4.46;;;;;;;;;;323262;164;859839;-58
2021/05/17 02:52:49;;;;;;;8.81;4.48;;;;;;;;;;322729;167;857816;-58
2021/05/17 02:53:52;;;;;;;11.12;5.31;;;;;;;;;;321966;165;857784;-58
2021/05/17 02:54:56;;;;;;;12.19;5.08;;;;;;;;;;319211;164;858477;-57
2021/05/17 02:55:58;;;;;;;10.00;5.26;;;;;;;;;;327738;164;858675;-59
2021/05/17 02:57:04;;;;;;;9.49;4.95;;;;;;;;;;327908;161;857373;-57
2021/05/17 02:58:06;;;;;;;8.59;4.66;;;;;;;;;;327129;162;857312;-58
2021/05/17 02:59:07;;;;;;;9.65;5.09;;;;;;;;;;327794;164;857250;-58
2021/05/17 03:00:11;;;;;;;8.54;4.31;;;;;;;;;;327234;161;857989;-57
2021/05/17 03:01:14;;;;;;;11.64;5.01;;;;;;;;;;324143;164;858239;-57
2021/05/17 03:02:16;;;;;;;7.67;4.69;;;;;;;;;;324918;164;859761;-55
2021/05/17 03:03:18;;;;;;;13.85;5.25;;;;;;;;;;327930;161;857581;-57
2021/05/17 03:04:20;;;;;;;10.41;5.47;;;;;;;;;;321003;168;857314;-56
2021/05/17 03:05:22;;;;;;;8.36;5.24;;;;;;;;;;315919;167;865083;-57
2021/05/17 03:06:33;;;;;;;10.47;5.18;;;;;;;;;;323699;164;858171;-58
2021/05/17 03:07:35;;;;;;;6.43;5.04;;;;;;;;;;318768;167;857399;-57
2021/05/17 03:08:39;;;;;;;9.43;4.79;;;;;;;;;;320561;164;857381;-55
2021/05/17 03:09:42;;;;;;;10.39;4.99;;;;;;;;;;321225;166;858336;-56
2021/05/17 03:10:45;;;;;;;9.10;5.02;;;;;;;;;;322266;164;857296;-58
2021/05/17 03:11:47;;;;;;;9.61;5.09;;;;;;;;;;319000;165;859169;-57
2021/05/17 03:12:48;;;;;;;13.34;5.56;;;;;;;;;;320439;166;857520;-56
2021/05/17 03:13:51;;;;;;;7.06;4.93;;;;;;;;;;318396;166;857482;-56
2021/05/17 03:14:52;;;;;;;9.79;5.03;;;;;;;;;;319667;168;865838;-56
2021/05/17 03:15:54;;;;;;;9.66;4.85;;;;;;;;;;325420;165;859126;-57
2021/05/17 03:16:58;;;;;;;6.91;4.46;;;;;;;;;;325106;163;859866;-59
2021/05/17 03:18:00;;;;;;;8.55;5.28;;;;;;;;;;323975;164;859285;-57
2021/05/17 03:19:02;;;;;;;12.81;5.47;;;;;;;;;;325104;164;857329;-58
2021/05/17 03:20:04;;;;;;;8.83;5.10;;;;;;;;;;325151;164;866781;-58
2021/05/17 03:21:06;;;;;;;9.36;5.45;;;;;;;;;;324044;164;857396;-55
2021/05/17 03:22:07;;;;;;;9.56;5.55;;;;;;;;;;320377;166;858433;-58
2021/05/17 03:23:12;;;;;;;12.09;5.44;;;;;;;;;;324086;165;857475;-57
2021/05/17 03:24:14;;;;;;;11.49;5.53;;;;;;;;;;318097;167;866899;-55
2021/05/17 03:25:16;;;;;;;9.16;5.61;;;;;;;;;;322890;164;856536;-57
2021/05/17 03:26:18;;;;;;;8.98;5.27;;;;;;;;;;324357;163;860785;-57
2021/05/17 03:27:21;;;;;;;11.17;5.13;;;;;;;;;;323794;164;858791;-56
2021/05/17 03:28:22;;;;;;;9.97;5.48;;;;;;;;;;325689;164;857237;-58
2021/05/17 03:29:24;;;;;;;12.99;5.29;;;;;;;;;;324179;164;857254;-56
2021/05/17 03:30:27;;;;;;;7.16;5.18;;;;;;;;;;319240;166;857370;-58
2021/05/17 03:31:29;;;;;;;13.12;6.03;;;;;;;;;;313687;168;857341;-58
2021/05/17 03:32:31;;;;;;;8.88;4.67;;;;;;;;;;325386;163;858924;-57
2021/05/17 03:33:32;;;;;;;9.57;5.01;;;;;;;;;;316996;166;864966;-57
2021/05/17 03:34:34;;;;;;;9.30;5.31;;;;;;;;;;322230;164;857505;-56
2021/05/17 03:35:36;;;;;;;9.22;4.90;;;;;;;;;;324808;163;857495;-57
2021/05/17 03:36:39;;;;;;;8.79;4.73;;;;;;;;;;325830;163;866815;-57
2021/05/17 03:37:40;;;;;;;10.33;5.18;;;;;;;;;;324844;164;858726;-56
2021/05/17 03:38:42;;;;;;;9.09;4.66;;;;;;;;;;323322;163;859930;-57
2021/05/17 03:39:45;;;;;;;9.32;5.01;;;;;;;;;;325469;165;857485;-59
2021/05/17 03:40:49;;;;;;;9.72;5.59;;;;;;;;;;324707;164;865943;-63
2021/05/17 03:41:50;;;;;;;11.57;5.35;;;;;;;;;;325538;164;859648;-59
2021/05/17 03:42:52;;;;;;;11.94;5.61;;;;;;;;;;325845;164;857607;-61
2021/05/17 03:43:54;;;;;;;8.93;5.92;;;;;;;;;;324175;164;857840;-58
2021/05/17 03:44:55;;;;;;;10.81;5.30;;;;;;;;;;317414;167;857324;-65
2021/05/17 03:45:57;;;;;;;9.60;5.32;;;;;;;;;;318976;167;857767;-62
2021/05/17 03:46:58;;;;;;;12.39;5.52;;;;;;;;;;325049;164;857782;-62
2021/05/17 03:48:00;;;;;;;11.36;5.62;;;;;;;;;;325447;165;866915;-64
2021/05/17 03:49:02;;;;;;;14.61;5.86;;;;;;;;;;324876;164;858015;-64
2021/05/17 03:50:04;;;;;;;12.51;5.59;;;;;;;;;;323473;166;861009;-64
2021/05/17 03:51:06;;;;;;;10.37;5.74;;;;;;;;;;324979;163;865052;-63
2021/05/17 03:52:08;;;;;;;9.09;5.57;;;;;;;;;;323838;164;858701;-65
2021/05/17 03:53:09;;;;;;;7.18;4.93;;;;;;;;;;318254;165;857503;-65
2021/05/17 03:54:11;;;;;;;8.60;4.86;;;;;;;;;;318502;165;857502;-66
2021/05/17 03:55:12;;;;;;;9.61;4.39;;;;;;;;;;320781;165;857441;-65
2021/05/17 03:56:14;;;;;;;6.85;4.69;;;;;;;;;;319590;165;857588;-62
2021/05/17 03:57:16;;;;;;;8.54;4.57;;;;;;;;;;319283;167;857540;-63
2021/05/17 03:58:17;;;;;;;9.49;4.88;;;;;;;;;;318212;166;859238;-62
2021/05/17 03:59:19;;;;;;;10.45;4.24;;;;;;;;;;324827;164;857847;-61
2021/05/17 04:00:22;;;;;;;7.62;4.53;;;;;;;;;;321677;164;859254;-64
2021/05/17 04:01:24;;;;;;;7.43;4.71;;;;;;;;;;325157;165;857774;-65
2021/05/17 04:02:26;;;;;;;6.26;4.76;;;;;;;;;;317084;168;864887;-67
2021/05/17 04:03:28;;;;;;;8.46;4.31;;;;;;;;;;320091;165;866743;-68
2021/05/17 04:04:36;;;;;;;9.35;4.69;;;;;;;;;;320202;167;857381;-63
2021/05/17 04:05:44;;;;;;;6.69;4.86;;;;;;;;;;319481;167;857284;-61
2021/05/17 04:06:48;;;;;;;10.11;4.71;;;;;;;;;;318608;168;858897;-65
2021/05/17 04:08:23;;;;;;;9.72;4.76;;;;;;;;;;325755;163;859465;-66
2021/05/17 04:14:18;;;;;;;12.18;5.23;;;;;;;;;;324416;162;861282;-68
2021/05/17 04:15:20;;;;;;;9.69;5.13;;;;;;;;;;330808;162;859221;-67
2021/05/17 04:16:22;;;;;;;7.63;5.31;;;;;;;;;;328479;162;857557;-62
2021/05/17 04:17:24;;;;;;;7.54;5.16;;;;;;;;;;329896;161;857860;-63
2021/05/17 04:18:25;;;;;;;11.69;5.14;;;;;;;;;;330719;162;865684;-59
2021/05/17 04:19:28;;;;;;;10.42;5.39;;;;;;;;;;325305;162;857924;-60
2021/05/17 04:20:29;;;;;;;10.03;5.15;;;;;;;;;;326430;162;857307;-58
2021/05/17 04:21:31;;;;;;;7.38;5.24;;;;;;;;;;329588;162;857577;-58
2021/05/17 04:22:33;;;;;;;8.90;5.59;;;;;;;;;;327875;161;857309;-59
2021/05/17 04:23:34;;;;;;;9.04;5.51;;;;;;;;;;330499;162;859136;-59
2021/05/17 04:24:36;;;;;;;8.65;5.53;;;;;;;;;;331620;161;857967;-60
2021/05/17 04:25:37;;;;;;;7.83;5.37;;;;;;;;;;330910;162;859183;-61
2021/05/17 04:26:39;;;;;;;8.43;5.09;;;;;;;;;;332342;160;858636;-59
2021/05/17 04:27:41;;;;;;;8.91;6.11;;;;;;;;;;327649;161;857409;-60
2021/05/17 04:28:42;;;;;;;10.27;5.79;;;;;;;;;;334258;160;859419;-61
2021/05/17 04:29:44;;;;;;;8.46;6.03;;;;;;;;;;324641;164;862031;-61
2021/05/17 04:30:46;;;;;;;9.46;5.57;;;;;;;;;;322402;164;859295;-60
2021/05/17 04:31:47;;;;;;;8.21;5.36;;;;;;;;;;324610;165;865953;-60
2021/05/17 04:32:49;;;;;;;7.80;5.47;;;;;;;;;;329562;162;865586;-61
2021/05/17 04:33:50;;;;;;;6.99;5.12;;;;;;;;;;330312;160;860415;-60
2021/05/17 04:34:52;;;;;;;8.80;5.28;;;;;;;;;;329692;162;858987;-58
2021/05/17 04:35:53;;;;;;;10.21;5.86;;;;;;;;;;330258;160;865079;-59
2021/05/17 04:36:55;;;;;;;10.40;6.11;;;;;;;;;;328012;161;857319;-65
2021/05/17 04:37:57;;;;;;;9.26;6.20;;;;;;;;;;330300;161;865279;-62
2021/05/17 04:38:59;;;;;;;7.56;5.91;;;;;;;;;;327691;161;858317;-62
2021/05/17 04:40:03;;;;;;;9.52;5.85;;;;;;;;;;328574;162;858415;-60
2021/05/17 04:41:05;;;;;;;9.74;5.65;;;;;;;;;;328922;161;859413;-60
2021/05/17 04:42:07;;;;;;;9.50;6.16;;;;;;;;;;330811;162;857406;-60
2021/05/17 04:43:08;;;;;;;10.43;6.15;;;;;;;;;;329021;161;857720;-61
2021/05/17 04:44:11;;;;;;;15.43;6.27;;;;;;;;;;329421;161;857407;-62
2021/05/17 04:45:13;;;;;;;9.53;6.27;;;;;;;;;;326740;162;857424;-61
2021/05/17 04:46:15;;;;;;;8.91;6.29;;;;;;;;;;323841;163;865179;-61
2021/05/17 04:47:17;;;;;;;11.23;6.18;;;;;;;;;;328865;162;864532;-63
2021/05/17 04:48:18;;;;;;;8.59;5.91;;;;;;;;;;331321;161;865751;-61
2021/05/17 04:49:20;;;;;;;9.73;5.99;;;;;;;;;;323899;161;857222;-61
2021/05/17 04:50:23;;;;;;;7.28;5.13;;;;;;;;;;327513;162;857913;-62
2021/05/17 04:51:25;;;;;;;6.34;4.86;;;;;;;;;;326855;163;858329;-64
2021/05/17 04:52:26;;;;;;;8.80;5.48;;;;;;;;;;326732;162;859219;-62
2021/05/17 04:53:28;;;;;;;6.91;5.06;;;;;;;;;;328163;163;857249;-61
2021/05/17 04:54:29;;;;;;;7.71;4.92;;;;;;;;;;328358;162;857282;-66
2021/05/17 04:55:31;;;;;;;9.19;4.96;;;;;;;;;;327328;162;857354;-63
2021/05/17 04:56:33;;;;;;;8.46;5.18;;;;;;;;;;331336;161;865876;-62
2021/05/17 04:57:35;;;;;;;7.46;5.54;;;;;;;;;;327501;162;857962;-62
2021/05/17 04:58:36;;;;;;;10.16;5.11;;;;;;;;;;328828;161;857547;-61
2021/05/17 04:59:38;;;;;;;9.75;4.91;;;;;;;;;;330431;161;857293;-61
2021/05/17 05:00:40;;;;;;;8.68;5.07;;;;;;;;;;329160;161;864814;-63
2021/05/17 05:01:44;;;;;;;6.24;4.54;;;;;;;;;;330435;161;857430;-64
2021/05/17 05:02:45;;;;;;;9.50;4.41;;;;;;;;;;328912;161;857492;-62
2021/05/17 05:03:47;;;;;;;11.06;4.99;;;;;;;;;;323235;165;864814;-61
2021/05/17 05:04:48;;;;;;;8.94;5.08;;;;;;;;;;330230;162;857306;-61
2021/05/17 05:05:50;;;;;;;6.20;4.54;;;;;;;;;;327565;164;857366;-62
2021/05/17 05:06:52;;;;;;;8.31;4.91;;;;;;;;;;323080;164;857612;-62
2021/05/17 05:07:53;;;;;;;8.40;4.81;;;;;;;;;;324159;163;867269;-61
2021/05/17 05:08:55;;;;;;;7.74;4.50;;;;;;;;;;325085;164;858827;-60
2021/05/17 05:09:56;;;;;;;9.25;5.29;;;;;;;;;;324347;162;863767;-64
2021/05/17 05:10:58;;;;;;;6.58;4.45;;;;;;;;;;319432;167;856530;-63
2021/05/17 05:12:00;;;;;;;5.92;4.54;;;;;;;;;;319518;164;856313;-63
2021/05/17 05:13:05;;;;;;;7.04;4.80;;;;;;;;;;326697;161;856480;-60
2021/05/17 05:14:07;;;;;;;6.49;4.91;;;;;;;;;;333058;161;858646;-63
2021/05/17 05:15:09;;;;;;;7.55;4.73;;;;;;;;;;334705;158;858766;-61
2021/05/17 05:16:11;;;;;;;6.67;4.60;;;;;;;;;;333797;160;857866;-62
2021/05/17 05:17:13;;;;;;;6.63;4.62;;;;;;;;;;334624;160;857448;-59
2021/05/17 05:18:14;;;;;;;6.36;4.71;;;;;;;;;;335376;158;858170;-61
2021/05/17 05:19:16;;;;;;;8.00;4.91;;;;;;;;;;333980;161;856517;-62
2021/05/17 05:20:18;;;;;;;8.36;4.89;;;;;;;;;;334896;158;857457;-62
2021/05/17 05:21:19;;;;;;;6.34;4.52;;;;;;;;;;333617;159;864927;-64
2021/05/17 05:22:21;;;;;;;7.19;4.64;;;;;;;;;;334241;160;858414;-63
2021/05/17 05:23:22;;;;;;;8.66;4.62;;;;;;;;;;335086;158;857418;-61
2021/05/17 05:24:24;;;;;;;7.28;4.59;;;;;;;;;;326201;162;857869;-59
2021/05/17 05:25:29;;;;;;;6.81;4.59;;;;;;;;;;323916;163;858177;-62
2021/05/17 05:27:37;;;;;;;6.10;4.41;;;;;;;;;;330149;161;864861;-61
2021/05/17 05:28:50;;;;;;;6.53;4.36;;;;;;;;;;325644;162;857413;-60
2021/05/17 05:31:19;;;;;;;9.56;4.32;;;;;;;;;;332652;158;856517;-62
2021/05/17 05:33:20;;;;;;;8.72;4.42;;;;;;;;;;332877;158;856558;-62
2021/05/17 05:34:26;;;;;;;5.71;3.86;;;;;;;;;;333549;158;856270;-62
2021/05/17 05:35:28;;;;;;;7.47;4.36;;;;;;;;;;335047;158;863892;-61
2021/05/17 05:36:30;;;;;;;5.97;4.60;;;;;;;;;;333299;158;857171;-61
2021/05/17 05:37:32;;;;;;;4.69;4.07;;;;;;;;;;333950;158;856294;-62
2021/05/17 05:38:33;;;;;;;5.94;4.05;;;;;;;;;;334562;158;856515;-61
2021/05/17 05:39:35;;;;;;;5.44;4.59;;;;;;;;;;333183;161;857322;-61
2021/05/17 05:40:37;;;;;;;6.94;4.13;;;;;;;;;;333762;158;859537;-60
2021/05/17 05:41:39;;;;;;;4.44;3.92;;;;;;;;;;330117;159;857416;-64
2021/05/17 05:42:40;;;;;;;6.10;4.34;;;;;;;;;;329194;162;863874;-60
2021/05/17 05:43:42;;;;;;;6.28;4.41;;;;;;;;;;332482;158;856260;-60
2021/05/17 05:44:46;;;;;;;7.83;4.65;;;;;;;;;;334711;160;856407;-59
2021/05/17 05:45:50;;;;;;;5.73;4.40;;;;;;;;;;334662;158;856328;-60
2021/05/17 05:46:51;;;;;;;7.89;4.58;;;;;;;;;;335339;158;856290;-62
2021/05/17 05:47:52;;;;;;;5.37;4.26;;;;;;;;;;334639;161;856391;-61
2021/05/17 05:48:57;;;;;;;5.53;4.31;;;;;;;;;;334538;158;863694;-61
2021/05/17 05:49:58;;;;;;;6.11;4.40;;;;;;;;;;334698;158;856334;-60
2021/05/17 05:50:59;;;;;;;5.63;4.11;;;;;;;;;;334217;160;857332;-61
2021/05/17 05:52:01;;;;;;;5.53;4.25;;;;;;;;;;335172;158;859226;-62
2021/05/17 05:53:02;;;;;;;6.01;4.51;;;;;;;;;;333890;160;857488;-63
2021/05/17 05:54:05;;;;;;;5.94;4.02;;;;;;;;;;335357;159;857544;-60
2021/05/17 05:55:07;;;;;;;5.09;4.14;;;;;;;;;;335208;158;857196;-62
2021/05/17 05:56:09;;;;;;;9.24;4.78;;;;;;;;;;333759;158;858202;-61
2021/05/17 05:57:11;;;;;;;6.84;3.98;;;;;;;;;;332651;161;860725;-63
2021/05/17 05:58:13;;;;;;;5.11;3.85;;;;;;;;;;333421;159;857988;-62
2021/05/17 05:59:15;;;;;;;4.45;3.97;;;;;;;;;;334090;161;857450;-61
2021/05/17 06:00:17;;;;;;;4.79;3.94;;;;;;;;;;335030;158;857524;-61
2021/05/17 06:01:19;;;;;;;4.81;3.93;;;;;;;;;;333687;159;857394;-61
2021/05/17 06:02:20;;;;;;;5.97;4.31;;;;;;;;;;334609;160;860255;-60
2021/05/17 06:03:22;;;;;;;5.48;3.91;;;;;;;;;;335311;158;857367;-61
2021/05/17 06:04:23;;;;;;;5.06;3.86;;;;;;;;;;333583;160;857260;-63
2021/05/17 06:05:25;;;;;;;6.21;3.54;;;;;;;;;;334204;161;857198;-63
2021/05/17 06:06:27;;;;;;;6.67;3.59;;;;;;;;;;335505;158;858967;-63
2021/05/17 06:07:29;;;;;;;6.76;4.24;;;;;;;;;;334712;161;857384;-61
2021/05/17 06:08:31;;;;;;;4.98;3.96;;;;;;;;;;332264;160;859215;-62
2021/05/17 06:09:32;;;;;;;6.99;3.89;;;;;;;;;;334420;158;859162;-62
2021/05/17 06:10:35;;;;;;;6.91;3.65;;;;;;;;;;337586;158;857328;-62
2021/05/17 06:11:36;;;;;;;5.11;3.66;;;;;;;;;;338431;158;858612;-65
2021/05/17 06:12:39;;;;;;;6.29;3.89;;;;;;;;;;334150;158;860259;-65
2021/05/17 06:13:42;;;;;;;5.00;3.63;;;;;;;;;;337522;158;865270;-65
2021/05/17 06:14:46;;;;;;;5.31;3.56;;;;;;;;;;334680;158;859310;-63
2021/05/17 06:15:48;;;;;;;5.99;3.25;;;;;;;;;;333613;160;865556;-68